Time;durP1;ratioP1;P1;durP2;ratioP2;P2;SDS_P1;SDS_P2;PMS_P1;PMS_P2;Temp;Humidity;BMP_temperature;BMP_pressure;BME280_temperature;BME280_humidity;BME280_pressure;Samples;Min_cycle;Max_cycle;Signal;HPM_P1;HPM_P2
2020/12/07 00:01:02;;;;;;;60.10;21.50;;;3.10;99.90;;;;;;4989360;28;20046;-68
2020/12/07 00:03:29;;;;;;;56.93;22.83;;;3.00;99.90;;;;;;4992450;28;20058;-67
2020/12/07 00:05:55;;;;;;;63.70;21.57;;;3.00;99.90;;;;;;4991680;28;20047;-67
2020/12/07 00:08:23;;;;;;;59.50;21.07;;;3.00;99.90;;;;;;4991952;28;20057;-69
2020/12/07 00:10:49;;;;;;;66.80;22.23;;;3.10;99.90;;;;;;4991479;28;20054;-67
2020/12/07 00:13:17;;;;;;;63.93;22.10;;;3.00;99.90;;;;;;4991570;28;20058;-69
2020/12/07 00:15:44;;;;;;;72.07;22.50;;;3.00;99.90;;;;;;4992098;28;20454;-67
2020/12/07 00:18:10;;;;;;;66.50;20.83;;;3.00;99.90;;;;;;4991521;28;20101;-68
2020/12/07 00:20:37;;;;;;;70.70;23.53;;;3.00;99.90;;;;;;4991419;28;20507;-67
2020/12/07 00:23:06;;;;;;;63.80;22.00;;;3.00;99.90;;;;;;4990768;28;20061;-69
2020/12/07 00:25:33;;;;;;;63.27;22.80;;;3.10;99.90;;;;;;4991509;28;20058;-69
2020/12/07 00:28:00;;;;;;;65.53;23.30;;;3.10;99.90;;;;;;4978833;28;20411;-67
2020/12/07 00:30:26;;;;;;;57.30;21.90;;;3.20;99.90;;;;;;4972403;28;20046;-69
2020/12/07 00:32:53;;;;;;;60.80;22.63;;;3.10;99.90;;;;;;4978457;28;20058;-67
2020/12/07 00:35:20;;;;;;;55.97;19.03;;;3.10;99.90;;;;;;4990945;28;20055;-67
2020/12/07 00:37:46;;;;;;;50.67;17.60;;;3.10;99.90;;;;;;4991868;28;20504;-67
2020/12/07 00:40:13;;;;;;;51.07;19.10;;;3.20;99.90;;;;;;4992461;28;20053;-67
2020/12/07 00:42:40;;;;;;;53.23;18.53;;;3.10;99.90;;;;;;4993666;28;20061;-65
2020/12/07 00:45:07;;;;;;;43.90;16.93;;;3.10;99.90;;;;;;4990558;28;20050;-66
2020/12/07 00:47:33;;;;;;;44.17;16.80;;;3.10;99.90;;;;;;4992039;28;20077;-67
2020/12/07 00:50:00;;;;;;;44.23;17.50;;;3.00;99.90;;;;;;4990852;28;20063;-67
2020/12/07 00:52:27;;;;;;;36.87;14.83;;;2.90;99.90;;;;;;4990685;28;20054;-69
2020/12/07 00:54:53;;;;;;;45.77;16.97;;;2.90;99.90;;;;;;4991204;28;20065;-66
2020/12/07 00:57:20;;;;;;;29.87;12.30;;;2.90;99.90;;;;;;4990247;28;20050;-65
2020/12/07 00:59:47;;;;;;;37.57;13.97;;;2.90;99.90;;;;;;4991613;28;20442;-65
2020/12/07 01:02:14;;;;;;;36.37;14.27;;;2.90;99.90;;;;;;4990358;28;20051;-65
2020/12/07 01:04:41;;;;;;;36.17;13.90;;;2.90;99.90;;;;;;4991455;28;20058;-65
2020/12/07 01:07:07;;;;;;;36.00;15.23;;;2.90;99.90;;;;;;4988337;28;20057;-66
2020/12/07 01:09:34;;;;;;;35.57;14.40;;;3.00;99.90;;;;;;4991384;28;20100;-65
2020/12/07 01:12:02;;;;;;;32.43;14.33;;;3.00;99.90;;;;;;4990285;28;20503;-65
2020/12/07 01:14:28;;;;;;;37.27;14.23;;;3.00;99.90;;;;;;4990904;28;20054;-64
2020/12/07 01:16:56;;;;;;;35.33;13.73;;;3.00;99.90;;;;;;4991108;28;20436;-64
2020/12/07 01:19:25;;;;;;;38.67;14.67;;;2.90;99.90;;;;;;4989699;28;20079;-64
2020/12/07 01:21:52;;;;;;;33.57;14.17;;;2.90;99.90;;;;;;4990920;28;20412;-65
2020/12/07 01:24:18;;;;;;;35.83;14.70;;;3.00;99.90;;;;;;4989795;28;20049;-65
2020/12/07 01:26:45;;;;;;;43.00;15.23;;;2.90;99.90;;;;;;4990315;28;20050;-65
2020/12/07 01:29:12;;;;;;;33.83;14.37;;;2.90;99.90;;;;;;4990538;28;20534;-67
2020/12/07 01:31:38;;;;;;;34.13;13.20;;;2.90;99.90;;;;;;4991036;28;20065;-64
2020/12/07 01:34:06;;;;;;;35.23;13.70;;;2.80;99.90;;;;;;4991152;28;20419;-64
2020/12/07 01:36:33;;;;;;;42.50;14.80;;;2.90;99.90;;;;;;4994741;28;20050;-65
2020/12/07 01:38:59;;;;;;;40.93;14.57;;;2.90;99.90;;;;;;4994463;28;20496;-64
2020/12/07 01:41:26;;;;;;;37.57;14.73;;;2.90;99.90;;;;;;4996083;28;20062;-65
2020/12/07 01:43:53;;;;;;;35.67;14.07;;;2.90;99.90;;;;;;4997591;28;20053;-65
2020/12/07 01:46:22;;;;;;;40.50;14.90;;;2.90;99.90;;;;;;4996704;28;20049;-65
2020/12/07 01:48:49;;;;;;;35.23;13.53;;;2.90;99.90;;;;;;4996582;28;20138;-65
2020/12/07 01:51:18;;;;;;;39.70;14.17;;;2.90;99.90;;;;;;4996431;28;20053;-66
2020/12/07 01:53:45;;;;;;;39.47;15.03;;;2.90;99.90;;;;;;4996278;28;20058;-65
2020/12/07 01:56:13;;;;;;;40.30;15.50;;;2.80;99.90;;;;;;4996839;28;20447;-65
2020/12/07 01:58:41;;;;;;;42.17;16.70;;;2.80;99.90;;;;;;4995362;28;20065;-66
2020/12/07 02:01:07;;;;;;;43.63;16.57;;;2.90;99.90;;;;;;4996805;28;20086;-65
2020/12/07 02:03:34;;;;;;;42.90;15.97;;;2.90;99.90;;;;;;4993981;28;20231;-64
2020/12/07 02:06:01;;;;;;;48.67;18.07;;;2.90;99.90;;;;;;4994394;28;20054;-66
2020/12/07 02:08:28;;;;;;;50.27;17.70;;;2.90;99.90;;;;;;4993014;28;20053;-65
2020/12/07 02:10:55;;;;;;;45.83;17.73;;;3.00;99.90;;;;;;4992221;28;20402;-65
2020/12/07 02:13:22;;;;;;;35.03;14.17;;;3.00;99.90;;;;;;4995469;28;20057;-65
2020/12/07 02:15:48;;;;;;;39.17;15.10;;;3.00;99.90;;;;;;4995590;28;20050;-67
2020/12/07 02:18:15;;;;;;;34.07;13.43;;;3.00;99.90;;;;;;4996765;28;20065;-65
2020/12/07 02:20:47;;;;;;;36.57;13.97;;;2.90;99.90;;;;;;4996238;28;20046;-65
2020/12/07 02:23:14;;;;;;;36.10;13.53;;;2.90;99.90;;;;;;4998362;28;20047;-65
2020/12/07 02:25:40;;;;;;;29.57;12.43;;;3.00;99.90;;;;;;4997683;28;20054;-65
2020/12/07 02:28:07;;;;;;;31.10;12.10;;;2.90;99.90;;;;;;4995453;28;20057;-68
2020/12/07 02:30:34;;;;;;;27.83;11.77;;;2.90;99.90;;;;;;4996697;28;20046;-64
2020/12/07 02:33:00;;;;;;;26.97;11.90;;;2.90;99.90;;;;;;4995340;28;20415;-64
2020/12/07 02:35:27;;;;;;;26.40;10.73;;;2.90;99.90;;;;;;4997014;28;20046;-67
2020/12/07 02:37:55;;;;;;;23.33;10.67;;;2.80;99.90;;;;;;4995464;28;20061;-65
2020/12/07 02:40:21;;;;;;;26.23;10.93;;;2.90;99.90;;;;;;4993755;28;20434;-67
2020/12/07 02:42:48;;;;;;;24.97;10.83;;;2.90;99.90;;;;;;4996362;28;20042;-64
2020/12/07 02:45:16;;;;;;;26.17;11.33;;;2.90;99.90;;;;;;4995517;28;20054;-64
2020/12/07 02:47:43;;;;;;;27.90;10.97;;;2.90;99.90;;;;;;4990857;28;20042;-65
2020/12/07 02:50:11;;;;;;;25.20;10.33;;;2.80;99.90;;;;;;4992092;28;20273;-64
2020/12/07 02:52:38;;;;;;;20.13;9.03;;;2.90;99.90;;;;;;4993447;28;20522;-67
2020/12/07 02:55:07;;;;;;;21.97;9.73;;;2.80;99.90;;;;;;4992617;28;20053;-65
2020/12/07 02:57:36;;;;;;;20.57;8.80;;;2.80;99.90;;;;;;4992637;28;20058;-67
2020/12/07 03:00:05;;;;;;;19.47;9.10;;;2.80;99.90;;;;;;4992970;28;20117;-64
2020/12/07 03:02:33;;;;;;;17.77;8.60;;;2.70;99.90;;;;;;4992384;28;20124;-67
2020/12/07 03:05:00;;;;;;;21.17;9.50;;;2.70;99.90;;;;;;4992715;28;20093;-65
2020/12/07 03:07:27;;;;;;;17.63;8.60;;;2.70;99.90;;;;;;4992570;28;20090;-65
2020/12/07 03:09:54;;;;;;;21.20;8.03;;;2.70;99.90;;;;;;4991829;28;20388;-65
2020/12/07 03:12:22;;;;;;;18.53;9.33;;;2.70;99.90;;;;;;4989321;28;20050;-66
2020/12/07 03:14:49;;;;;;;18.30;8.57;;;2.80;99.90;;;;;;4990097;28;20050;-65
2020/12/07 03:17:15;;;;;;;22.93;9.70;;;2.70;99.90;;;;;;4993392;28;20053;-65
2020/12/07 03:19:42;;;;;;;17.23;8.33;;;2.70;99.90;;;;;;4992288;28;20418;-67
2020/12/07 03:22:08;;;;;;;17.93;7.90;;;2.80;99.90;;;;;;4992422;28;20046;-65
2020/12/07 03:24:35;;;;;;;17.63;8.87;;;2.70;99.90;;;;;;4992046;28;20097;-64
2020/12/07 03:27:02;;;;;;;16.50;8.10;;;2.80;99.90;;;;;;4986933;28;20050;-65
2020/12/07 03:29:29;;;;;;;19.70;8.47;;;2.80;99.90;;;;;;4992836;28;20122;-67
2020/12/07 03:31:56;;;;;;;15.43;7.67;;;2.80;99.90;;;;;;4991910;28;20538;-65
2020/12/07 03:34:23;;;;;;;16.33;8.03;;;2.80;99.90;;;;;;4990819;28;20050;-65
2020/12/07 03:36:49;;;;;;;19.07;8.73;;;2.70;99.90;;;;;;4992539;28;20414;-64
2020/12/07 03:39:16;;;;;;;16.53;8.60;;;2.80;99.90;;;;;;4991863;28;21434;-64
2020/12/07 03:41:43;;;;;;;19.97;8.67;;;2.70;99.90;;;;;;4989220;28;20454;-65
2020/12/07 03:44:10;;;;;;;18.73;8.37;;;2.60;99.90;;;;;;4992075;28;20495;-65
2020/12/07 03:46:38;;;;;;;15.70;7.07;;;2.60;99.90;;;;;;4991906;28;20080;-66
2020/12/07 03:49:04;;;;;;;20.37;9.20;;;2.50;99.90;;;;;;4991825;28;20062;-65
2020/12/07 03:51:31;;;;;;;16.97;8.83;;;2.50;99.90;;;;;;4992159;28;20054;-66
2020/12/07 03:53:58;;;;;;;19.90;9.37;;;2.50;99.90;;;;;;4990798;28;20050;-65
2020/12/07 03:56:24;;;;;;;19.13;8.67;;;2.60;99.90;;;;;;4992309;28;20057;-66
2020/12/07 03:58:51;;;;;;;20.00;9.17;;;2.60;99.90;;;;;;4991197;28;20054;-67
2020/12/07 04:01:18;;;;;;;19.60;8.87;;;2.50;99.90;;;;;;4992132;28;20054;-66
2020/12/07 04:03:50;;;;;;;18.40;8.60;;;2.60;99.90;;;;;;4992187;28;20419;-66
2020/12/07 04:06:21;;;;;;;18.63;8.77;;;2.50;99.90;;;;;;4991648;28;20557;-65
2020/12/07 04:08:48;;;;;;;21.07;9.77;;;2.50;99.90;;;;;;4990949;28;20046;-66
2020/12/07 04:11:14;;;;;;;17.97;9.17;;;2.50;99.90;;;;;;4991066;28;20042;-65
2020/12/07 04:13:41;;;;;;;17.70;8.97;;;2.50;99.90;;;;;;4992806;28;20053;-65
2020/12/07 04:16:08;;;;;;;21.03;8.97;;;2.50;99.90;;;;;;4993924;28;20050;-66
2020/12/07 04:18:34;;;;;;;20.67;9.13;;;2.50;99.90;;;;;;4994586;28;20046;-66
2020/12/07 04:21:02;;;;;;;19.57;9.47;;;2.50;99.90;;;;;;4996193;28;20054;-66
2020/12/07 04:23:29;;;;;;;19.80;10.13;;;2.50;99.90;;;;;;4995526;28;20057;-66
2020/12/07 04:25:56;;;;;;;19.77;9.97;;;2.50;99.90;;;;;;4995957;28;20046;-66
2020/12/07 04:28:23;;;;;;;17.83;9.03;;;2.50;99.90;;;;;;4987728;28;20057;-65
2020/12/07 04:30:50;;;;;;;17.67;8.80;;;2.50;99.90;;;;;;4992988;28;20058;-68
2020/12/07 04:33:16;;;;;;;18.70;9.57;;;2.50;99.90;;;;;;4993929;28;20169;-66
2020/12/07 04:35:43;;;;;;;20.77;10.03;;;2.60;99.90;;;;;;4993763;28;20053;-65
2020/12/07 04:38:10;;;;;;;21.03;9.73;;;2.60;99.90;;;;;;4993858;28;20305;-67
2020/12/07 04:40:38;;;;;;;18.60;9.30;;;2.50;99.90;;;;;;4992368;28;20058;-65
2020/12/07 04:43:05;;;;;;;21.77;9.97;;;2.50;99.90;;;;;;4996668;28;20053;-66
2020/12/07 04:45:31;;;;;;;19.63;9.63;;;2.50;99.90;;;;;;4995933;28;20053;-65
2020/12/07 04:48:00;;;;;;;20.33;9.20;;;2.50;99.90;;;;;;4996355;28;20104;-67
2020/12/07 04:50:29;;;;;;;17.53;8.83;;;2.50;99.90;;;;;;4996047;28;20046;-66
2020/12/07 04:52:57;;;;;;;20.00;10.17;;;2.50;99.90;;;;;;4995862;28;20592;-68
2020/12/07 04:55:25;;;;;;;21.43;10.77;;;2.60;99.90;;;;;;4995827;28;20066;-65
2020/12/07 04:57:53;;;;;;;19.00;9.60;;;2.50;99.90;;;;;;4995518;28;20062;-65
2020/12/07 05:00:23;;;;;;;21.23;9.70;;;2.60;99.90;;;;;;4991444;28;20104;-68
2020/12/07 05:02:51;;;;;;;20.33;10.40;;;2.60;99.90;;;;;;4990457;28;20392;-65
2020/12/07 05:05:18;;;;;;;19.17;9.97;;;2.50;99.90;;;;;;4991669;28;20519;-66
2020/12/07 05:07:48;;;;;;;18.90;9.27;;;2.60;99.90;;;;;;4990838;28;20046;-66
2020/12/07 05:10:18;;;;;;;21.17;9.13;;;2.60;99.90;;;;;;4991239;28;20082;-66
2020/12/07 05:12:49;;;;;;;18.40;9.23;;;2.60;99.90;;;;;;4990963;28;20513;-66
2020/12/07 05:15:17;;;;;;;16.90;8.27;;;2.60;99.90;;;;;;4990008;28;20530;-65
2020/12/07 05:17:45;;;;;;;20.10;9.50;;;2.60;99.90;;;;;;4991441;28;20057;-66
2020/12/07 05:20:12;;;;;;;18.47;9.10;;;2.60;99.90;;;;;;4990312;28;20495;-65
2020/12/07 05:22:40;;;;;;;17.23;8.97;;;2.60;99.90;;;;;;4991412;28;20054;-65
2020/12/07 05:25:08;;;;;;;19.40;8.53;;;2.70;99.90;;;;;;4990360;28;20061;-67
2020/12/07 05:27:39;;;;;;;17.80;9.30;;;2.60;99.90;;;;;;4990884;28;20101;-66
2020/12/07 05:30:11;;;;;;;18.83;9.13;;;2.60;99.90;;;;;;4991298;28;20089;-68
2020/12/07 05:32:39;;;;;;;17.50;8.57;;;2.60;99.90;;;;;;4987197;28;20511;-65
2020/12/07 05:35:09;;;;;;;19.10;9.47;;;2.60;99.90;;;;;;4972246;28;20051;-66
2020/12/07 05:37:36;;;;;;;17.70;8.43;;;2.60;99.90;;;;;;4970533;28;20061;-66
2020/12/07 05:40:05;;;;;;;18.20;9.03;;;2.70;99.90;;;;;;4971314;28;20191;-66
2020/12/07 05:42:32;;;;;;;17.00;8.47;;;2.70;99.90;;;;;;4977004;28;20046;-66
2020/12/07 05:45:00;;;;;;;17.50;8.67;;;2.60;99.90;;;;;;4991441;28;20061;-65
2020/12/07 05:47:29;;;;;;;19.20;10.03;;;2.60;99.90;;;;;;4991872;28;20050;-65
2020/12/07 05:49:56;;;;;;;20.90;10.00;;;2.60;99.90;;;;;;4990398;28;20051;-66
2020/12/07 05:52:31;;;;;;;25.77;10.53;;;2.60;99.90;;;;;;4990832;28;20542;-65
2020/12/07 05:55:00;;;;;;;18.97;9.37;;;2.60;99.90;;;;;;4990532;28;20050;-68
2020/12/07 05:57:28;;;;;;;19.33;9.53;;;2.60;99.90;;;;;;4991638;28;20054;-66
2020/12/07 05:59:56;;;;;;;20.53;9.87;;;2.70;99.90;;;;;;4991116;28;20073;-65
2020/12/07 06:02:24;;;;;;;18.17;9.33;;;2.60;99.90;;;;;;4991433;28;20062;-65
2020/12/07 06:04:52;;;;;;;20.07;9.83;;;2.60;99.90;;;;;;4990879;28;20393;-66
2020/12/07 06:07:24;;;;;;;20.63;10.83;;;2.70;99.90;;;;;;4990097;28;20554;-65
2020/12/07 06:09:52;;;;;;;18.80;9.77;;;2.70;99.90;;;;;;4991720;28;20411;-65
2020/12/07 06:12:22;;;;;;;21.77;11.43;;;2.70;99.90;;;;;;4990268;28;20062;-66
2020/12/07 06:14:49;;;;;;;22.43;11.13;;;2.70;99.90;;;;;;4992347;28;20065;-65
2020/12/07 06:17:23;;;;;;;24.37;11.43;;;2.70;99.90;;;;;;4990708;28;20054;-65
2020/12/07 06:19:52;;;;;;;20.77;10.57;;;2.70;99.90;;;;;;4991462;28;20521;-65
2020/12/07 06:22:21;;;;;;;23.50;12.43;;;2.70;99.90;;;;;;4993264;28;20050;-66
2020/12/07 06:24:50;;;;;;;23.50;12.03;;;2.70;99.90;;;;;;4994816;28;20499;-66
2020/12/07 06:27:18;;;;;;;22.93;12.00;;;2.80;99.90;;;;;;4979974;28;20057;-65
2020/12/07 06:30:00;;;;;;;25.47;12.30;;;2.80;99.90;;;;;;4975449;28;20058;-67
2020/12/07 06:32:55;;;;;;;23.80;12.00;;;2.80;99.90;;;;;;4975327;28;20058;-66
2020/12/07 06:35:27;;;;;;;24.00;12.30;;;2.80;99.90;;;;;;4959633;28;20058;-65
2020/12/07 06:37:54;;;;;;;25.03;12.20;;;2.80;99.90;;;;;;4994222;28;20069;-66
2020/12/07 06:40:24;;;;;;;27.33;13.30;;;2.70;99.90;;;;;;4993542;28;20050;-68
2020/12/07 06:42:50;;;;;;;23.60;13.50;;;2.70;99.90;;;;;;4994675;28;20061;-68
2020/12/07 06:45:22;;;;;;;25.97;13.17;;;2.70;99.90;;;;;;4993347;28;20054;-66
2020/12/07 06:47:51;;;;;;;25.97;12.87;;;2.70;99.90;;;;;;4994173;28;20047;-68
2020/12/07 06:50:20;;;;;;;24.03;12.87;;;2.70;99.90;;;;;;4993067;28;20090;-68
2020/12/07 06:52:48;;;;;;;25.70;12.53;;;2.70;99.90;;;;;;4994014;28;20062;-66
2020/12/07 06:55:17;;;;;;;26.40;13.23;;;2.80;99.90;;;;;;4993843;28;20511;-66
2020/12/07 06:57:45;;;;;;;26.93;13.17;;;2.70;99.90;;;;;;4993021;28;20061;-66
2020/12/07 07:00:15;;;;;;;25.60;12.93;;;2.80;99.90;;;;;;4993454;28;20059;-65
2020/12/07 07:02:46;;;;;;;26.53;13.27;;;2.80;99.90;;;;;;4993350;28;20434;-65
2020/12/07 07:05:15;;;;;;;25.93;13.03;;;2.80;99.90;;;;;;4994251;28;20054;-65
2020/12/07 07:07:42;;;;;;;26.80;13.47;;;2.80;99.90;;;;;;4992863;28;20054;-65
2020/12/07 07:10:11;;;;;;;27.37;14.23;;;2.80;99.90;;;;;;4993734;28;20042;-68
2020/12/07 07:12:39;;;;;;;23.90;12.83;;;2.80;99.90;;;;;;4993274;28;20125;-65
2020/12/07 07:15:07;;;;;;;28.90;14.50;;;2.90;99.90;;;;;;4994257;28;20047;-65
2020/12/07 07:17:36;;;;;;;24.03;13.50;;;2.90;99.90;;;;;;4993912;28;20054;-67
2020/12/07 07:20:05;;;;;;;25.43;13.60;;;2.80;99.90;;;;;;4993148;28;20082;-68
2020/12/07 07:22:34;;;;;;;28.23;13.63;;;2.80;99.90;;;;;;4993973;28;20065;-65
2020/12/07 07:30:35;;;;;;;26.63;14.30;;;2.80;99.90;;;;;;4991523;28;20518;-66
2020/12/07 07:33:02;;;;;;;27.63;13.30;;;2.80;99.90;;;;;;4993110;28;20061;-66
2020/12/07 07:35:30;;;;;;;28.70;14.47;;;2.80;99.90;;;;;;4993265;28;20162;-66
2020/12/07 07:37:57;;;;;;;28.43;14.40;;;2.90;99.90;;;;;;4993117;28;20086;-65
2020/12/07 07:40:25;;;;;;;32.30;15.93;;;2.90;99.90;;;;;;4992539;28;20050;-66
2020/12/07 07:42:54;;;;;;;26.17;14.23;;;2.90;99.90;;;;;;4993285;28;20073;-67
2020/12/07 07:45:22;;;;;;;22.77;13.33;;;3.00;99.90;;;;;;4992880;28;20054;-66
2020/12/07 07:47:56;;;;;;;26.20;14.70;;;3.00;99.90;;;;;;4994221;28;20054;-66
2020/12/07 07:50:44;;;;;;;28.20;14.57;;;3.00;99.90;;;;;;4993886;28;20057;-65
2020/12/07 08:16:22;;;;;;;24.20;13.17;;;3.30;99.90;;;;;;4974185;28;20038;-66
2020/12/07 08:18:52;;;;;;;24.27;13.47;;;3.40;99.90;;;;;;4973126;28;20059;-66
2020/12/07 08:21:28;;;;;;;24.23;12.87;;;3.40;99.90;;;;;;4973037;28;20059;-68
2020/12/07 08:23:58;;;;;;;22.80;12.63;;;3.40;99.90;;;;;;4972833;28;20057;-66
2020/12/07 08:26:25;;;;;;;20.83;12.20;;;3.40;99.90;;;;;;4973817;28;20067;-67
2020/12/07 08:28:53;;;;;;;19.80;11.17;;;3.40;99.90;;;;;;4972519;28;20255;-66
2020/12/07 08:31:22;;;;;;;21.40;11.20;;;3.50;99.90;;;;;;4992124;28;20060;-66
2020/12/07 08:34:00;;;;;;;21.40;11.67;;;3.50;99.90;;;;;;4992774;28;20062;-66
2020/12/07 08:36:28;;;;;;;21.70;12.37;;;3.50;99.90;;;;;;4992440;28;20145;-68
2020/12/07 08:38:55;;;;;;;21.13;12.67;;;3.50;99.90;;;;;;4991318;28;20389;-64
2020/12/07 08:41:23;;;;;;;19.87;10.70;;;3.50;99.90;;;;;;4991511;28;20054;-66
2020/12/07 08:43:50;;;;;;;21.67;12.20;;;3.50;99.90;;;;;;4992106;28;20043;-66
2020/12/07 08:46:19;;;;;;;19.07;10.87;;;3.50;99.90;;;;;;4990835;28;20511;-66
2020/12/07 08:48:47;;;;;;;18.40;10.53;;;3.60;99.90;;;;;;4992320;28;20057;-65
2020/12/07 08:51:14;;;;;;;18.07;10.63;;;3.60;99.90;;;;;;4990912;28;20178;-65
2020/12/07 08:53:41;;;;;;;18.77;10.27;;;3.70;99.90;;;;;;4992063;28;20050;-65
2020/12/07 08:56:09;;;;;;;17.57;9.17;;;3.70;99.90;;;;;;4991382;28;20065;-65
2020/12/07 08:58:37;;;;;;;16.57;9.13;;;3.70;99.90;;;;;;4992275;28;20388;-65
2020/12/07 09:01:05;;;;;;;21.27;10.27;;;3.70;99.90;;;;;;4990879;28;20053;-67
2020/12/07 09:03:32;;;;;;;16.83;8.77;;;3.70;99.90;;;;;;4992018;28;20057;-66
2020/12/07 09:06:01;;;;;;;17.50;9.30;;;3.80;99.90;;;;;;4992006;28;20050;-66
2020/12/07 09:08:27;;;;;;;17.00;9.30;;;3.90;99.90;;;;;;4991032;28;20065;-68
2020/12/07 09:10:54;;;;;;;15.77;9.30;;;3.80;99.90;;;;;;4991381;28;20050;-65
2020/12/07 09:13:21;;;;;;;16.00;9.27;;;3.80;99.90;;;;;;4991395;28;20061;-65
2020/12/07 09:15:47;;;;;;;15.17;8.83;;;3.80;99.90;;;;;;4991881;28;20451;-64
2020/12/07 09:18:14;;;;;;;16.80;9.60;;;3.90;99.90;;;;;;4991101;28;20415;-66
2020/12/07 09:20:41;;;;;;;17.33;9.47;;;3.90;99.90;;;;;;4991731;28;20507;-65
2020/12/07 09:23:08;;;;;;;15.37;8.80;;;3.90;99.90;;;;;;4991565;28;20050;-65
2020/12/07 09:25:35;;;;;;;15.63;8.63;;;3.90;99.90;;;;;;4992195;28;20047;-66
2020/12/07 09:28:01;;;;;;;15.73;8.97;;;4.00;99.90;;;;;;4991021;28;20077;-65
2020/12/07 09:30:28;;;;;;;14.90;8.23;;;3.90;99.90;;;;;;4991471;28;20054;-66
2020/12/07 09:32:55;;;;;;;15.30;8.30;;;4.10;99.90;;;;;;4991753;28;20050;-65
2020/12/07 09:35:21;;;;;;;16.63;8.30;;;4.10;99.90;;;;;;4990381;28;20069;-65
2020/12/07 09:37:48;;;;;;;16.07;8.63;;;4.10;99.90;;;;;;4991508;28;20516;-66
2020/12/07 09:40:16;;;;;;;16.70;8.40;;;4.10;99.90;;;;;;4990069;28;20050;-65
2020/12/07 09:42:43;;;;;;;16.13;8.30;;;4.20;99.90;;;;;;4991201;28;20070;-65
2020/12/07 09:45:10;;;;;;;14.07;8.07;;;4.20;99.90;;;;;;4990784;28;20073;-65
2020/12/07 09:47:37;;;;;;;16.00;8.93;;;4.20;99.90;;;;;;4991361;28;20065;-66
2020/12/07 09:50:05;;;;;;;14.87;8.10;;;4.20;99.90;;;;;;4990622;28;20050;-65
2020/12/07 09:52:31;;;;;;;14.47;8.20;;;4.20;99.90;;;;;;4991359;28;20562;-64
2020/12/07 09:54:58;;;;;;;15.13;7.37;;;4.30;99.90;;;;;;4990757;28;20539;-68
2020/12/07 09:57:26;;;;;;;14.07;7.20;;;4.30;99.90;;;;;;4994317;28;20050;-66
2020/12/07 09:59:52;;;;;;;15.20;8.37;;;4.30;99.90;;;;;;4995384;28;20061;-68
2020/12/07 10:02:19;;;;;;;11.97;6.73;;;4.40;99.90;;;;;;4994329;28;20046;-65
2020/12/07 10:04:46;;;;;;;11.30;6.77;;;4.60;99.90;;;;;;4995139;28;20046;-65
2020/12/07 10:07:13;;;;;;;14.97;6.90;;;4.50;99.90;;;;;;4993875;28;20042;-65
2020/12/07 10:09:40;;;;;;;13.30;7.10;;;4.50;99.90;;;;;;4995017;28;20057;-65
2020/12/07 10:12:07;;;;;;;11.90;6.53;;;4.50;99.90;;;;;;4994611;28;20053;-65
2020/12/07 10:14:34;;;;;;;10.13;5.80;;;4.50;99.90;;;;;;4995570;28;20061;-66
2020/12/07 10:17:01;;;;;;;13.67;7.07;;;4.60;99.90;;;;;;4994335;28;20498;-66
2020/12/07 10:19:28;;;;;;;12.47;6.77;;;4.60;99.90;;;;;;4995097;28;20054;-66
2020/12/07 10:21:55;;;;;;;12.13;5.53;;;4.70;99.90;;;;;;4993776;28;20423;-66
2020/12/07 10:24:22;;;;;;;10.57;5.93;;;4.80;99.90;;;;;;4994919;28;20050;-66
2020/12/07 10:26:49;;;;;;;12.77;6.60;;;4.70;99.90;;;;;;4994773;28;20054;-66
2020/12/07 10:29:15;;;;;;;11.50;5.80;;;4.70;99.90;;;;;;4994358;28;20050;-66
2020/12/07 10:31:43;;;;;;;11.33;5.47;;;4.60;99.90;;;;;;4994771;28;20058;-66
2020/12/07 10:34:10;;;;;;;12.97;6.37;;;4.60;99.90;;;;;;4992811;28;20050;-65
2020/12/07 10:36:37;;;;;;;10.40;5.27;;;4.50;99.90;;;;;;4994572;28;20046;-66
2020/12/07 10:39:07;;;;;;;12.57;6.00;;;4.60;99.90;;;;;;4989434;28;20458;-65
2020/12/07 10:41:34;;;;;;;9.93;5.67;;;4.70;99.90;;;;;;4992661;28;20097;-65
2020/12/07 10:44:01;;;;;;;9.97;5.23;;;4.70;99.90;;;;;;4990950;28;20057;-65
2020/12/07 10:46:28;;;;;;;10.93;5.73;;;4.60;99.90;;;;;;4993378;28;20046;-65
2020/12/07 10:48:55;;;;;;;9.47;5.23;;;4.70;99.90;;;;;;4992927;28;20054;-65
2020/12/07 10:51:22;;;;;;;12.23;5.70;;;4.60;99.90;;;;;;4992522;28;20050;-65
2020/12/07 10:53:49;;;;;;;9.50;5.37;;;4.60;99.90;;;;;;4993198;28;20053;-67
2020/12/07 10:56:15;;;;;;;9.67;5.37;;;4.70;99.90;;;;;;4992120;28;20046;-68
2020/12/07 10:58:43;;;;;;;11.03;5.43;;;4.60;99.90;;;;;;4993567;28;20419;-66
2020/12/07 11:01:10;;;;;;;8.73;4.97;;;4.60;99.90;;;;;;4993294;28;20043;-68
2020/12/07 11:03:37;;;;;;;9.70;5.20;;;4.60;99.90;;;;;;4992935;28;20058;-66
2020/12/07 11:06:12;;;;;;;10.57;4.80;;;4.70;99.90;;;;;;4994320;28;20053;-68
2020/12/07 11:08:48;;;;;;;12.00;5.30;;;4.70;99.90;;;;;;4991833;28;20514;-65
2020/12/07 11:11:15;;;;;;;9.13;4.67;;;4.80;99.90;;;;;;4991085;28;20058;-65
2020/12/07 11:13:42;;;;;;;11.00;5.50;;;4.90;99.90;;;;;;4993996;28;20058;-67
2020/12/07 11:16:12;;;;;;;10.43;5.20;;;4.90;99.90;;;;;;4993150;28;20052;-66
2020/12/07 11:18:38;;;;;;;7.50;4.53;;;5.10;99.90;;;;;;4992917;28;20053;-66
2020/12/07 11:21:12;;;;;;;8.70;4.67;;;5.20;99.90;;;;;;4992996;28;20141;-65
2020/12/07 11:23:41;;;;;;;13.53;5.27;;;5.30;99.90;;;;;;4993323;28;20054;-65
2020/12/07 11:26:09;;;;;;;8.90;4.47;;;5.40;99.90;;;;;;4993229;28;20534;-68
2020/12/07 11:28:35;;;;;;;7.53;4.30;;;5.40;99.90;;;;;;4996913;28;20129;-66
2020/12/07 11:31:02;;;;;;;7.83;4.53;;;5.30;99.90;;;;;;4989396;28;20137;-68
2020/12/07 11:33:30;;;;;;;8.27;4.57;;;5.30;99.90;;;;;;4997261;28;20054;-68
2020/12/07 11:35:56;;;;;;;9.67;4.57;;;5.20;99.90;;;;;;4994853;28;20055;-66
2020/12/07 11:38:26;;;;;;;8.67;4.73;;;5.30;99.90;;;;;;4994182;28;20069;-65
2020/12/07 11:41:18;;;;;;;10.83;5.50;;;5.20;99.90;;;;;;4994067;28;20503;-66
2020/12/07 11:43:49;;;;;;;9.00;4.90;;;5.20;99.90;;;;;;4996281;28;20463;-68
2020/12/07 11:46:28;;;;;;;9.27;4.43;;;5.20;99.90;;;;;;4994113;28;20050;-66
2020/12/07 11:48:55;;;;;;;10.43;5.10;;;5.30;99.90;;;;;;4992376;28;20503;-66
2020/12/07 11:51:24;;;;;;;8.03;4.17;;;5.30;99.90;;;;;;4992906;28;20054;-66
2020/12/07 11:53:54;;;;;;;9.07;4.87;;;5.30;99.90;;;;;;4992194;28;20050;-66
2020/12/07 11:56:27;;;;;;;10.80;5.10;;;5.30;99.90;;;;;;4989772;28;20065;-65
2020/12/07 11:58:54;;;;;;;8.13;4.30;;;5.10;99.90;;;;;;4991659;28;20487;-65
2020/12/07 12:01:20;;;;;;;9.77;4.60;;;5.10;99.90;;;;;;4992985;28;20050;-66
2020/12/07 12:03:47;;;;;;;8.30;4.77;;;5.10;99.90;;;;;;4992141;28;20050;-67
2020/12/07 12:06:20;;;;;;;10.53;5.53;;;5.20;99.90;;;;;;4996018;28;20058;-66
2020/12/07 12:08:47;;;;;;;9.73;4.90;;;5.10;99.90;;;;;;5005312;28;20061;-69
2020/12/07 12:11:14;;;;;;;8.93;5.03;;;5.10;99.90;;;;;;5004111;28;20050;-66
2020/12/07 12:13:41;;;;;;;10.23;5.37;;;5.00;99.90;;;;;;4997541;28;20050;-68
2020/12/07 12:16:08;;;;;;;11.00;5.07;;;5.10;99.90;;;;;;4992253;28;20061;-65
2020/12/07 12:18:34;;;;;;;9.90;5.40;;;5.10;99.90;;;;;;4992954;28;20054;-65
2020/12/07 12:21:01;;;;;;;9.07;5.00;;;5.00;99.90;;;;;;4992214;28;20058;-68
2020/12/07 12:23:28;;;;;;;11.43;5.50;;;5.20;99.90;;;;;;4992712;28;20166;-65
2020/12/07 12:25:54;;;;;;;9.47;5.20;;;5.20;99.90;;;;;;4991803;28;20054;-65
2020/12/07 12:28:22;;;;;;;8.87;4.87;;;5.20;99.90;;;;;;4991734;28;20481;-66
2020/12/07 12:30:48;;;;;;;7.83;4.03;;;5.20;99.90;;;;;;4991601;28;20103;-65
2020/12/07 12:33:15;;;;;;;9.33;4.43;;;5.30;99.90;;;;;;4992599;28;20411;-65
2020/12/07 12:35:42;;;;;;;9.20;4.50;;;5.20;99.90;;;;;;4992222;28;20058;-66
2020/12/07 12:38:08;;;;;;;8.17;4.10;;;5.20;99.90;;;;;;4991243;28;20050;-65
2020/12/07 12:40:35;;;;;;;10.73;4.70;;;5.20;99.90;;;;;;4992126;28;20065;-66
2020/12/07 12:43:02;;;;;;;15.17;4.00;;;5.30;99.90;;;;;;4982684;28;20062;-66
2020/12/07 12:45:29;;;;;;;8.50;4.33;;;5.20;99.90;;;;;;4973029;28;20619;-66
2020/12/07 12:47:56;;;;;;;8.13;4.30;;;5.10;99.90;;;;;;4974748;28;20051;-66
2020/12/07 12:50:23;;;;;;;8.17;4.60;;;5.10;99.90;;;;;;4992321;28;20050;-66
2020/12/07 12:52:49;;;;;;;12.47;5.00;;;5.10;99.90;;;;;;4991280;28;20050;-66
2020/12/07 12:55:16;;;;;;;8.77;4.57;;;5.20;99.90;;;;;;4990191;28;20058;-68
2020/12/07 12:57:44;;;;;;;10.30;5.57;;;5.10;99.90;;;;;;4987733;28;20054;-66
2020/12/07 13:00:11;;;;;;;9.83;4.80;;;5.10;99.90;;;;;;4987393;28;20089;-66
2020/12/07 13:02:39;;;;;;;7.87;4.67;;;5.10;99.90;;;;;;4988282;28;20054;-68
2020/12/07 13:05:05;;;;;;;8.87;4.70;;;5.10;99.90;;;;;;4987070;28;20046;-67
2020/12/07 13:07:32;;;;;;;9.47;4.70;;;5.00;99.90;;;;;;4988111;28;20050;-69
2020/12/07 13:09:59;;;;;;;7.40;4.40;;;5.00;99.90;;;;;;4986836;28;20050;-68
2020/12/07 13:12:25;;;;;;;11.17;4.97;;;5.00;99.90;;;;;;4989457;28;20054;-65
2020/12/07 13:14:52;;;;;;;6.53;3.77;;;5.00;99.90;;;;;;4990523;28;20050;-65